Time;durP1;ratioP1;P1;durP2;ratioP2;P2;SDS_P1;SDS_P2;PMS_P1;PMS_P2;Temp;Humidity;BMP_temperature;BMP_pressure;BME280_temperature;BME280_humidity;BME280_pressure;Samples;Min_cycle;Max_cycle;Signal;HPM_P1;HPM_P2
2022/05/01 00:01:09;;;;;;;3.33;2.72;;;;;;;13.21;49.83;99044.78;4484800;31;20118;-71
2022/05/01 00:03:39;;;;;;;4.60;3.50;;;;;;;13.18;49.88;99050.34;4484625;31;20137;-71
2022/05/01 00:06:07;;;;;;;8.32;3.33;;;;;;;13.20;50.05;99048.41;4484762;31;20446;-71
2022/05/01 00:08:40;;;;;;;6.43;3.50;;;;;;;13.19;50.44;99048.56;4484676;31;20119;-71
2022/05/01 00:11:08;;;;;;;4.43;3.10;;;;;;;13.15;50.63;99050.63;4484508;31;20248;-71
2022/05/01 00:13:44;;;;;;;5.60;3.45;;;;;;;13.16;50.26;99044.41;4484414;31;20145;-71
2022/05/01 00:16:12;;;;;;;6.70;4.12;;;;;;;13.12;50.41;99048.28;4484746;31;20196;-71
2022/05/01 00:18:40;;;;;;;6.65;3.62;;;;;;;13.17;50.63;99043.44;4484619;31;20153;-71
2022/05/01 00:21:07;;;;;;;6.18;3.55;;;;;;;13.18;50.88;99047.69;4484564;31;20076;-71
2022/05/01 00:23:35;;;;;;;6.07;3.47;;;;;;;13.14;50.41;99043.69;4484562;32;20097;-71
2022/05/01 00:26:04;;;;;;;6.50;3.65;;;;;;;13.24;50.34;99041.03;4484539;31;20131;-71
2022/05/01 00:28:32;;;;;;;7.22;3.75;;;;;;;13.20;50.37;99039.66;4483392;32;20092;-71
2022/05/01 00:31:00;;;;;;;4.78;3.33;;;;;;;13.20;50.36;99042.28;4484654;31;20135;-71
2022/05/01 00:36:25;;;;;;;6.87;3.58;;;;;;;13.17;50.87;99038.19;4484431;31;20153;-71
2022/05/01 00:39:10;;;;;;;6.53;3.42;;;;;;;13.14;50.88;99039.28;4484047;32;20502;-71
2022/05/01 00:41:43;;;;;;;6.03;3.10;;;;;;;13.16;51.34;99033.87;4485605;31;20076;-71
2022/05/01 00:44:13;;;;;;;4.95;3.40;;;;;;;13.09;51.31;99040.69;4486247;31;20084;-71
2022/05/01 00:46:41;;;;;;;5.15;3.37;;;;;;;13.04;51.53;99037.69;4486438;31;20114;-71
2022/05/01 00:49:12;;;;;;;6.68;3.55;;;;;;;13.00;51.41;99045.03;4486115;31;20096;-71
2022/05/01 00:51:46;;;;;;;8.48;3.35;;;;;;;13.02;51.59;99040.47;4486312;31;20084;-71
2022/05/01 00:54:18;;;;;;;5.10;3.53;;;;;;;13.01;50.89;99044.06;4486335;32;20468;-71
2022/05/01 00:56:49;;;;;;;5.70;3.05;;;;;;;13.02;51.49;99042.25;4485044;32;20131;-71
2022/05/01 00:59:17;;;;;;;7.45;3.62;;;;;;;13.01;51.06;99041.44;4486325;32;20100;-71
2022/05/01 01:01:45;;;;;;;7.55;4.10;;;;;;;13.01;51.10;99040.59;4486209;31;20630;-71
2022/05/01 01:04:13;;;;;;;6.05;4.15;;;;;;;12.99;51.06;99042.53;4486109;31;20434;-71
2022/05/01 01:06:42;;;;;;;5.35;3.60;;;;;;;13.00;50.81;99044.22;4486353;31;20165;-71
2022/05/01 01:09:11;;;;;;;6.20;3.83;;;;;;;13.05;51.05;99039.31;4486193;32;20112;-71
2022/05/01 01:11:39;;;;;;;4.62;3.45;;;;;;;12.99;50.86;99045.16;4485857;31;20088;-71
2022/05/01 01:14:07;;;;;;;6.55;4.20;;;;;;;12.93;51.05;99041.34;4485762;32;20085;-71
2022/05/01 01:16:36;;;;;;;7.82;4.07;;;;;;;12.93;51.03;99036.91;4486408;31;20116;-71
2022/05/01 01:19:04;;;;;;;5.15;3.33;;;;;;;12.91;51.44;99043.28;4485994;31;20091;-71
2022/05/01 01:21:32;;;;;;;5.97;3.60;;;;;;;13.00;50.90;99036.31;4486093;31;20475;-71
2022/05/01 01:24:00;;;;;;;6.70;3.53;;;;;;;12.99;51.31;99042.53;4485825;31;20122;-71
2022/05/01 01:26:29;;;;;;;5.43;3.42;;;;;;;12.99;51.04;99040.75;4484848;32;20096;-71
2022/05/01 01:28:57;;;;;;;4.30;3.45;;;;;;;12.96;51.19;99047.13;4485976;32;20200;-71
2022/05/01 01:31:42;;;;;;;4.93;3.40;;;;;;;12.99;50.87;99039.91;4485906;31;20100;-71
2022/05/01 01:34:14;;;;;;;4.50;3.33;;;;;;;12.97;51.11;99040.06;4484746;32;20122;-71
2022/05/01 01:36:42;;;;;;;5.00;3.70;;;;;;;13.02;51.13;99043.09;4486099;31;20422;-71
2022/05/01 01:39:09;;;;;;;7.57;3.60;;;;;;;13.05;50.77;99039.31;4485873;31;20240;-71
2022/05/01 01:41:40;;;;;;;6.03;3.10;;;;;;;13.08;51.01;99041.66;4485571;31;20171;-71
2022/05/01 01:44:08;;;;;;;5.70;3.85;;;;;;;13.05;50.87;99039.31;4485751;31;20076;-71
2022/05/01 01:46:38;;;;;;;5.15;3.78;;;;;;;12.95;50.72;99040.19;4485939;31;20458;-71
2022/05/01 01:49:10;;;;;;;4.37;3.28;;;;;;;12.98;51.25;99040.91;4485853;31;20127;-71
2022/05/01 01:51:37;;;;;;;7.70;3.28;;;;;;;12.95;50.76;99032.31;4485511;31;20102;-71
2022/05/01 01:54:06;;;;;;;4.53;2.85;;;;;;;12.95;51.15;99037.56;4485651;32;20164;-71
2022/05/01 01:56:37;;;;;;;5.65;3.70;;;;;;;12.91;50.94;99033.59;4486029;31;20160;-71
2022/05/01 01:59:05;;;;;;;5.22;3.62;;;;;;;12.90;51.09;99037.19;4485734;32;20141;-71
2022/05/01 02:01:32;;;;;;;4.22;3.08;;;;;;;12.81;51.72;99027.56;4485944;31;20122;-71
2022/05/01 02:04:00;;;;;;;5.00;3.42;;;;;;;12.90;52.09;99034.56;4485515;31;20097;-71
2022/05/01 02:06:27;;;;;;;4.95;3.53;;;;;;;12.91;51.25;99038.00;4485585;31;20093;-71
2022/05/01 02:08:54;;;;;;;5.32;3.58;;;;;;;12.84;51.73;99027.25;4485563;31;20084;-71
2022/05/01 02:11:22;;;;;;;4.82;3.75;;;;;;;12.89;51.90;99027.63;4484134;32;20116;-71
2022/05/01 02:13:49;;;;;;;5.20;3.45;;;;;;;12.95;52.10;99029.69;4485375;31;20107;-71
2022/05/01 02:16:17;;;;;;;4.75;3.40;;;;;;;12.89;51.88;99027.63;4485763;31;20468;-71
2022/05/01 02:18:45;;;;;;;9.68;4.10;;;;;;;12.93;52.37;99030.81;4485519;31;20149;-71
2022/05/01 02:23:58;;;;;;;5.18;3.50;;;;;;;12.90;51.41;99025.81;4485533;31;20398;-71
2022/05/01 02:26:25;;;;;;;5.93;3.85;;;;;;;12.91;52.28;99025.72;4485535;31;20451;-71
2022/05/01 02:28:52;;;;;;;5.82;3.85;;;;;;;12.98;52.12;99027.75;4485755;31;20118;-71
2022/05/01 02:31:19;;;;;;;7.97;4.80;;;;;;;12.99;52.46;99029.38;4485266;31;20103;-71
2022/05/01 02:33:46;;;;;;;9.35;3.97;;;;;;;13.06;51.93;99030.47;4485425;31;20149;-71
2022/05/01 02:36:16;;;;;;;6.03;3.60;;;;;;;12.94;51.92;99033.31;4485406;31;20126;-71
2022/05/01 02:38:44;;;;;;;4.80;3.58;;;;;;;12.96;51.93;99033.97;4485519;31;20092;-71
2022/05/01 02:41:12;;;;;;;7.97;4.25;;;;;;;13.03;51.90;99028.13;4485183;31;20826;-71
2022/05/01 02:43:39;;;;;;;5.50;3.80;;;;;;;12.98;52.44;99030.38;4485374;31;20119;-71
2022/05/01 02:46:06;;;;;;;6.22;3.78;;;;;;;12.89;52.57;99027.63;4485321;31;20131;-71
2022/05/01 02:48:33;;;;;;;6.53;3.90;;;;;;;12.94;52.52;99033.31;4485545;31;20118;-71
2022/05/01 02:51:04;;;;;;;6.50;3.67;;;;;;;12.99;52.75;99032.03;4485409;31;20127;-71
2022/05/01 02:53:32;;;;;;;6.80;3.62;;;;;;;12.89;52.64;99029.44;4485542;31;20144;-71
2022/05/01 02:56:02;;;;;;;8.02;3.70;;;;;;;12.86;52.89;99025.31;4485289;31;20465;-71
2022/05/01 02:58:30;;;;;;;6.35;4.47;;;;;;;12.87;52.89;99026.13;4485450;31;20099;-71
2022/05/01 03:00:57;;;;;;;6.00;3.53;;;;;;;12.83;53.19;99020.34;4485269;31;20096;-71
2022/05/01 03:03:25;;;;;;;9.98;4.45;;;;;;;12.82;53.00;99020.47;4483991;32;20427;-71
2022/05/01 03:05:53;;;;;;;8.93;4.12;;;;;;;12.85;53.66;99017.56;4485431;31;20584;-71
2022/05/01 03:08:21;;;;;;;7.07;3.97;;;;;;;12.83;53.26;99015.06;4485302;31;20096;-71
2022/05/01 03:10:48;;;;;;;4.93;4.05;;;;;;;12.82;53.61;99018.66;4485070;32;20157;-71
2022/05/01 03:13:17;;;;;;;5.82;4.07;;;;;;;12.86;53.26;99020.03;4485252;31;20084;-71
2022/05/01 03:15:45;;;;;;;6.32;3.85;;;;;;;12.81;54.17;99032.81;4484969;31;20124;-71
2022/05/01 03:23:45;;;;;;;10.00;3.62;;;;;;;12.55;54.68;99036.09;4485358;31;20076;-71
2022/05/01 03:26:16;;;;;;;5.15;4.00;;;;;;;12.62;55.32;99038.13;4485439;32;20104;-71
2022/05/01 03:28:44;;;;;;;5.00;3.80;;;;;;;12.52;54.83;99040.78;4485320;31;20594;-71
2022/05/01 03:31:13;;;;;;;5.78;4.20;;;;;;;12.43;55.51;99035.41;4485044;31;20445;-71
2022/05/01 03:33:42;;;;;;;6.45;4.20;;;;;;;12.49;55.88;99034.03;4485178;32;20096;-71
2022/05/01 03:36:09;;;;;;;6.75;4.18;;;;;;;12.50;55.24;99030.41;4485052;31;20100;-71
2022/05/01 03:38:41;;;;;;;7.75;4.20;;;;;;;12.48;55.84;99029.72;4485181;31;20088;-71
2022/05/01 03:41:12;;;;;;;6.78;4.37;;;;;;;12.32;56.42;99027.69;4484831;31;20072;-71
2022/05/01 03:43:39;;;;;;;8.15;4.03;;;;;;;12.33;56.88;99031.16;4485247;31;20081;-71
2022/05/01 03:46:06;;;;;;;6.78;4.25;;;;;;;12.38;56.67;99037.66;4484847;31;20123;-71
2022/05/01 03:48:34;;;;;;;4.75;3.67;;;;;;;12.32;57.27;99042.63;4485120;31;20167;-71
2022/05/01 03:51:02;;;;;;;7.95;4.00;;;;;;;12.23;57.13;99055.66;4484958;31;20499;-71
2022/05/01 03:53:30;;;;;;;6.37;4.03;;;;;;;12.14;57.76;99046.00;4485003;31;20100;-71
2022/05/01 03:55:57;;;;;;;7.85;4.25;;;;;;;12.07;58.00;99042.25;4483309;32;20173;-71
2022/05/01 03:58:25;;;;;;;5.70;4.18;;;;;;;12.06;57.60;99040.59;4483588;32;20126;-71
2022/05/01 04:00:52;;;;;;;8.50;4.47;;;;;;;12.02;58.42;99039.22;4484826;31;20115;-71
2022/05/01 04:03:19;;;;;;;8.13;4.55;;;;;;;12.06;58.46;99048.47;4485133;31;20096;-71
2022/05/01 04:05:46;;;;;;;6.57;3.65;;;;;;;12.16;58.29;99051.94;4484791;31;20122;-71
2022/05/01 04:08:14;;;;;;;6.50;4.05;;;;;;;12.19;58.14;99049.00;4484743;31;20100;-71
2022/05/01 04:10:43;;;;;;;9.60;4.85;;;;;;;12.19;58.01;99056.91;4484615;31;20096;-71
2022/05/01 04:13:11;;;;;;;7.00;4.90;;;;;;;12.12;58.41;99047.91;4484466;31;20093;-71
2022/05/01 04:15:38;;;;;;;6.55;4.22;;;;;;;12.11;58.46;99053.31;4483773;31;20100;-71
2022/05/01 04:18:08;;;;;;;6.40;4.57;;;;;;;12.15;59.17;99058.13;4484650;31;20175;-71
2022/05/01 04:20:38;;;;;;;8.80;4.68;;;;;;;12.05;59.91;99052.91;4484602;31;20088;-71
2022/05/01 04:23:06;;;;;;;9.90;5.45;;;;;;;12.15;59.38;99058.13;4484506;31;20091;-70
2022/05/01 04:25:34;;;;;;;6.68;4.72;;;;;;;12.14;59.34;99056.50;4484560;31;20096;-71
2022/05/01 04:28:08;;;;;;;5.07;4.22;;;;;;;12.17;59.33;99061.47;4484333;31;20100;-71
2022/05/01 04:30:36;;;;;;;8.40;4.87;;;;;;;12.19;59.43;99063.97;4484824;32;20254;-71
2022/05/01 04:33:06;;;;;;;11.93;5.18;;;;;;;12.16;59.82;99065.06;4484239;31;20124;-71
2022/05/01 04:35:40;;;;;;;10.25;5.25;;;;;;;12.12;60.01;99065.47;4484664;31;20110;-71
2022/05/01 04:38:10;;;;;;;8.23;4.97;;;;;;;12.22;59.60;99069.75;4484599;31;20084;-71
2022/05/01 04:40:42;;;;;;;8.40;5.20;;;;;;;12.24;59.70;99067.81;4484344;31;20511;-71
2022/05/01 04:43:12;;;;;;;9.40;5.22;;;;;;;12.40;59.79;99069.84;4483995;31;20104;-71
2022/05/01 04:45:41;;;;;;;8.73;4.93;;;;;;;12.50;59.71;99071.63;4484333;31;20080;-71
2022/05/01 04:48:09;;;;;;;8.85;5.22;;;;;;;12.57;59.53;99068.28;4484272;31;20119;-71
2022/05/01 04:50:37;;;;;;;12.75;5.55;;;;;;;12.70;59.37;99073.25;4484245;31;20115;-71
2022/05/01 04:53:12;;;;;;;8.93;5.53;;;;;;;12.64;59.66;99062.47;4484116;31;20532;-71
2022/05/01 04:55:40;;;;;;;7.20;4.55;;;;;;;12.71;59.84;99066.19;4484294;31;20090;-71
2022/05/01 04:58:09;;;;;;;6.93;4.93;;;;;;;12.83;58.83;99070.28;4483995;31;20084;-71
2022/05/01 05:00:36;;;;;;;7.43;5.05;;;;;;;12.92;59.21;99073.84;4484182;31;20092;-71
2022/05/01 05:03:04;;;;;;;7.75;5.00;;;;;;;12.87;59.66;99074.28;4483803;31;20158;-71
2022/05/01 05:05:34;;;;;;;6.62;4.57;;;;;;;13.00;59.35;99078.41;4484121;32;20115;-71
2022/05/01 05:10:49;;;;;;;7.57;4.55;;;;;;;13.01;59.45;99074.81;4483979;31;20163;-71
2022/05/01 05:13:24;;;;;;;6.75;4.50;;;;;;;13.06;58.78;99085.69;4483713;31;20076;-71
2022/05/01 05:15:53;;;;;;;7.47;4.65;;;;;;;13.16;59.53;99089.13;4483841;31;20134;-71
2022/05/01 05:18:21;;;;;;;7.57;4.90;;;;;;;13.20;59.39;99085.25;4483459;31;20442;-71
2022/05/01 05:20:48;;;;;;;8.82;5.25;;;;;;;13.25;59.30;99082.16;4483822;31;20115;-71
2022/05/01 05:23:15;;;;;;;12.80;4.60;;;;;;;13.35;58.97;99082.94;4483525;32;20084;-71
2022/05/01 05:25:43;;;;;;;7.30;5.03;;;;;;;13.39;59.41;99088.75;4483650;31;20077;-71
2022/05/01 05:28:10;;;;;;;8.18;5.22;;;;;;;13.37;59.34;99085.44;4484681;31;20752;-71
2022/05/01 05:30:37;;;;;;;12.02;5.20;;;;;;;13.42;59.66;99088.47;4485932;32;20105;-71
2022/05/01 05:33:05;;;;;;;7.75;4.97;;;;;;;13.41;59.47;99084.16;4485740;31;20157;-71
2022/05/01 05:35:32;;;;;;;8.40;4.90;;;;;;;13.69;59.49;99086.75;4486103;31;20118;-71
2022/05/01 05:37:59;;;;;;;9.63;4.45;;;;;;;13.79;59.57;99082.25;4486035;31;20092;-71
2022/05/01 05:40:26;;;;;;;7.82;4.78;;;;;;;13.86;59.07;99091.22;4485931;32;20097;-71
2022/05/01 05:42:54;;;;;;;6.30;4.70;;;;;;;13.57;58.83;99094.87;4485585;31;20092;-71
2022/05/01 05:45:22;;;;;;;8.77;4.85;;;;;;;13.45;59.32;99091.63;4485983;31;20107;-71
2022/05/01 05:47:49;;;;;;;13.52;5.28;;;;;;;13.70;59.72;99096.31;4484760;32;20505;-71
2022/05/01 05:50:16;;;;;;;6.62;4.28;;;;;;;13.86;59.38;99100.94;4486077;31;20096;-71
2022/05/01 05:52:44;;;;;;;7.00;4.97;;;;;;;13.93;59.30;99100.19;4485902;31;20124;-71
2022/05/01 05:55:11;;;;;;;7.60;4.85;;;;;;;13.90;58.89;99108.38;4485841;31;20115;-71
2022/05/01 05:57:38;;;;;;;7.05;4.65;;;;;;;13.97;59.68;99106.81;4485623;31;20069;-71
2022/05/01 06:00:06;;;;;;;7.00;4.65;;;;;;;14.21;59.04;99115.88;4485796;32;20096;-71
2022/05/01 06:02:38;;;;;;;6.22;4.45;;;;;;;13.95;58.51;99110.56;4485626;31;20147;-71
2022/05/01 06:05:06;;;;;;;5.37;4.40;;;;;;;13.87;59.20;99113.94;4485542;31;20149;-71
2022/05/01 06:07:33;;;;;;;7.90;4.70;;;;;;;13.94;59.73;99119.44;4485986;31;20371;-71
2022/05/01 06:10:00;;;;;;;9.25;4.87;;;;;;;13.98;59.91;99115.53;4485566;31;20084;-71
2022/05/01 06:12:28;;;;;;;6.82;4.30;;;;;;;14.09;59.66;99119.75;4485764;31;20084;-71
2022/05/01 06:14:55;;;;;;;9.02;4.93;;;;;;;13.97;59.63;99114.72;4485312;31;20103;-71
2022/05/01 06:17:22;;;;;;;7.40;4.12;;;;;;;14.24;59.96;99118.22;4485570;31;20088;-71
2022/05/01 06:19:50;;;;;;;5.93;3.87;;;;;;;14.52;60.39;99118.13;4485834;31;20137;-71
2022/05/01 06:22:17;;;;;;;4.62;3.85;;;;;;;14.66;58.79;99114.94;4485494;31;20106;-71
2022/05/01 06:24:44;;;;;;;7.15;4.00;;;;;;;14.63;58.42;99115.25;4485564;31;20096;-71
2022/05/01 06:27:11;;;;;;;4.72;3.87;;;;;;;14.88;58.26;99121.53;4485627;32;20164;-71
2022/05/01 06:29:38;;;;;;;8.38;3.97;;;;;;;15.06;57.76;99115.34;4485441;31;20085;-71
2022/05/01 06:32:06;;;;;;;6.28;4.40;;;;;;;15.24;57.91;99117.87;4485484;31;20087;-71
2022/05/01 06:34:35;;;;;;;6.60;4.90;;;;;;;15.34;56.79;99123.06;4483953;32;20088;-71
2022/05/01 06:37:02;;;;;;;6.60;4.65;;;;;;;15.22;56.88;99123.31;4485655;31;20096;-71
2022/05/01 06:39:29;;;;;;;7.15;4.45;;;;;;;15.67;57.68;99120.50;4484945;31;20096;-71
2022/05/01 06:41:57;;;;;;;6.07;3.92;;;;;;;15.87;55.27;99121.09;4485202;31;20093;-71
2022/05/01 06:44:25;;;;;;;7.70;4.00;;;;;;;15.87;55.32;99124.56;4485457;31;20092;-71
2022/05/01 06:46:52;;;;;;;6.75;4.70;;;;;;;16.10;56.16;99126.56;4485743;31;20099;-71
2022/05/01 06:49:19;;;;;;;5.25;3.85;;;;;;;16.27;55.61;99125.56;4485388;32;20525;-71
2022/05/01 06:51:46;;;;;;;6.10;4.20;;;;;;;16.44;55.54;99130.88;4485558;32;20092;-71
2022/05/01 06:54:13;;;;;;;5.78;3.40;;;;;;;16.60;55.57;99130.03;4485489;31;20449;-71
2022/05/01 06:56:41;;;;;;;5.32;3.90;;;;;;;16.73;52.78;99130.34;4485462;31;20175;-71
2022/05/01 06:59:08;;;;;;;5.47;3.70;;;;;;;16.83;54.62;99124.87;4485289;32;20436;-71
2022/05/01 07:01:35;;;;;;;7.72;4.28;;;;;;;16.88;52.76;99127.03;4485310;31;20088;-71
2022/05/01 07:04:03;;;;;;;4.87;3.08;;;;;;;16.98;53.24;99123.19;4485138;31;20447;-71
2022/05/01 07:06:30;;;;;;;6.43;3.85;;;;;;;17.06;52.22;99119.69;4485285;32;20104;-71
2022/05/01 07:08:57;;;;;;;5.75;4.35;;;;;;;17.18;54.34;99118.38;4485241;31;20457;-71
2022/05/01 07:11:25;;;;;;;7.03;3.90;;;;;;;17.48;55.17;99118.53;4485000;31;20509;-71
2022/05/01 07:13:52;;;;;;;7.35;3.53;;;;;;;17.64;52.58;99111.50;4485078;31;20122;-71
2022/05/01 07:16:20;;;;;;;4.37;2.90;;;;;;;18.09;54.09;99118.72;4485353;31;20114;-71
2022/05/01 07:18:48;;;;;;;5.37;3.17;;;;;;;18.06;50.16;99116.44;4485201;31;20143;-71
2022/05/01 07:21:15;;;;;;;4.12;3.35;;;;;;;18.05;49.88;99114.75;4485024;31;20092;-71
2022/05/01 07:23:42;;;;;;;5.57;3.20;;;;;;;17.70;50.85;99116.13;4485112;31;20092;-71
2022/05/01 07:26:10;;;;;;;4.25;2.95;;;;;;;17.68;50.78;99118.13;4485172;31;20159;-71
2022/05/01 07:28:37;;;;;;;5.22;3.15;;;;;;;17.86;53.64;99116.00;4485092;31;20131;-71
2022/05/01 07:31:04;;;;;;;3.53;2.92;;;;;;;17.58;54.57;99115.69;4485027;31;20351;-71
2022/05/01 07:33:32;;;;;;;7.75;3.05;;;;;;;17.79;55.16;99115.09;4485247;31;20100;-71
2022/05/01 07:35:59;;;;;;;5.18;3.85;;;;;;;17.61;51.74;99115.34;4485043;31;20093;-71
2022/05/01 07:38:26;;;;;;;8.02;3.58;;;;;;;17.71;53.74;99107.16;4485133;31;20151;-71
2022/05/01 07:40:54;;;;;;;4.12;2.80;;;;;;;17.75;51.94;99113.78;4484705;31;20191;-71
2022/05/01 07:43:21;;;;;;;5.90;3.58;;;;;;;18.05;53.19;99114.75;4484839;31;20084;-71
2022/05/01 07:45:48;;;;;;;5.25;3.50;;;;;;;18.39;54.28;99124.09;4484799;31;20134;-71
2022/05/01 07:48:16;;;;;;;5.40;4.20;;;;;;;18.58;51.74;99114.00;4485072;32;20228;-71
2022/05/01 07:50:43;;;;;;;6.95;3.97;;;;;;;18.48;54.08;99113.44;4483734;31;20465;-71
2022/05/01 07:53:10;;;;;;;5.78;4.05;;;;;;;18.76;53.28;99111.84;4484798;31;20085;-71
2022/05/01 07:55:37;;;;;;;5.97;3.75;;;;;;;18.95;50.05;99118.44;4484757;32;20131;-71
2022/05/01 07:58:05;;;;;;;6.53;3.80;;;;;;;19.08;47.92;99117.00;4484448;31;20459;-71
2022/05/01 08:00:32;;;;;;;4.53;3.50;;;;;;;19.26;48.38;99101.50;4484435;31;20096;-71
2022/05/01 08:05:48;;;;;;;5.45;2.75;;;;;;;19.58;52.54;99098.62;4484203;31;20073;-71
2022/05/01 08:08:15;;;;;;;3.92;3.28;;;;;;;19.99;49.08;99103.38;4484342;31;20437;-71
2022/05/01 08:10:42;;;;;;;6.00;2.75;;;;;;;20.47;46.01;99092.94;4484096;31;20110;-71
2022/05/01 08:13:09;;;;;;;3.30;2.78;;;;;;;20.68;44.52;99094.75;4484078;31;20096;-71
2022/05/01 08:15:37;;;;;;;5.12;2.95;;;;;;;20.43;44.63;99093.53;4484077;31;20216;-71
2022/05/01 08:21:07;;;;;;;3.35;2.33;;;;;;;20.79;46.47;99096.06;4483811;32;20147;-71
2022/05/01 08:23:36;;;;;;;5.65;2.33;;;;;;;20.59;46.56;99090.56;4484237;32;20091;-71
2022/05/01 08:26:05;;;;;;;4.85;2.90;;;;;;;20.75;47.47;99094.78;4483737;31;20097;-71
2022/05/01 08:28:34;;;;;;;6.10;2.90;;;;;;;20.91;44.43;99096.34;4483885;31;20096;-71
2022/05/01 08:31:02;;;;;;;5.43;3.83;;;;;;;21.00;46.34;99095.16;4483481;31;20096;-71
2022/05/01 08:33:30;;;;;;;3.08;2.60;;;;;;;20.88;48.84;99096.72;4483865;32;20671;-71
2022/05/01 08:35:57;;;;;;;4.93;2.75;;;;;;;20.98;47.79;99093.69;4483664;31;20100;-71
2022/05/01 08:38:25;;;;;;;5.90;2.25;;;;;;;20.83;45.07;99096.47;4483744;31;20484;-71
2022/05/01 08:40:53;;;;;;;2.12;1.62;;;;;;;20.66;47.91;99091.44;4483529;32;20123;-71
2022/05/01 08:43:21;;;;;;;2.75;1.67;;;;;;;20.49;41.95;99092.75;4483882;31;20111;-71
2022/05/01 08:46:16;;;;;;;3.53;2.17;;;;;;;20.08;45.72;99088.13;4484411;31;20122;-71
2022/05/01 08:48:56;;;;;;;3.17;2.45;;;;;;;19.95;44.45;99092.28;4437741;32;20219;-71
2022/05/01 08:51:23;;;;;;;4.50;2.30;;;;;;;19.99;44.79;99090.06;4450236;32;20112;-71
2022/05/01 08:53:52;;;;;;;4.78;1.90;;;;;;;19.78;46.75;99089.03;4437612;32;20128;-71
2022/05/01 08:56:19;;;;;;;2.08;1.85;;;;;;;19.86;47.75;99085.44;4437466;32;20089;-71
2022/05/01 08:58:46;;;;;;;3.22;2.10;;;;;;;20.00;49.60;99081.91;4437585;32;20097;-71
2022/05/01 09:01:14;;;;;;;5.57;2.33;;;;;;;20.25;46.44;99080.69;4450168;32;20567;-71
2022/05/01 09:03:43;;;;;;;2.58;2.12;;;;;;;20.48;46.24;99075.94;4439258;32;20104;-71
2022/05/01 09:06:11;;;;;;;3.60;2.22;;;;;;;20.48;45.94;99080.44;4451504;32;20270;-71
2022/05/01 09:08:40;;;;;;;2.33;2.00;;;;;;;20.26;46.48;99069.84;4451785;32;20509;-71
2022/05/01 09:13:54;;;;;;;3.15;1.90;;;;;;;20.46;44.75;99071.84;4451915;32;20180;-71
2022/05/01 09:16:21;;;;;;;3.35;2.20;;;;;;;20.35;45.50;99073.19;4439653;32;20102;-71
2022/05/01 09:18:49;;;;;;;5.15;2.50;;;;;;;20.63;46.88;99067.84;4452104;32;20097;-71
2022/05/01 09:21:16;;;;;;;3.28;2.40;;;;;;;20.37;46.63;99066.66;4452191;32;20084;-71
2022/05/01 09:23:45;;;;;;;5.35;2.58;;;;;;;20.43;41.92;99069.56;4452194;32;20104;-71
2022/05/01 09:26:19;;;;;;;6.78;2.20;;;;;;;20.43;48.51;99067.72;4474752;32;20096;-71
2022/05/01 09:28:49;;;;;;;4.95;2.20;;;;;;;20.09;43.66;99063.13;4486068;31;20471;-71
2022/05/01 09:31:42;;;;;;;6.80;2.33;;;;;;;19.95;45.18;99054.22;4485730;31;20113;-71
2022/05/01 09:34:23;;;;;;;3.60;2.30;;;;;;;19.66;43.26;99053.31;4485261;31;20449;-71
2022/05/01 09:36:51;;;;;;;2.80;2.35;;;;;;;19.52;46.01;99064.81;4485484;31;20479;-71
2022/05/01 09:39:19;;;;;;;7.40;2.70;;;;;;;19.83;47.16;99060.06;4485442;31;20096;-71
2022/05/01 09:41:48;;;;;;;9.27;3.00;;;;;;;19.98;48.55;99056.50;4483779;32;20096;-71
2022/05/01 09:44:17;;;;;;;4.80;2.80;;;;;;;20.01;46.87;99056.13;4485298;31;20119;-71
2022/05/01 09:46:45;;;;;;;4.75;2.58;;;;;;;20.29;43.98;99052.69;4484150;32;20127;-71
2022/05/01 09:49:17;;;;;;;3.40;2.15;;;;;;;19.97;41.83;99049.53;4485843;31;20776;-71
2022/05/01 09:51:55;;;;;;;3.33;2.53;;;;;;;19.99;41.79;99040.34;4485570;31;20081;-71
2022/05/01 09:54:26;;;;;;;3.25;2.30;;;;;;;20.32;42.05;99044.31;4485967;31;20453;-71
2022/05/01 09:56:58;;;;;;;3.47;2.55;;;;;;;20.25;39.73;99052.22;4486023;31;20111;-71
2022/05/01 09:59:27;;;;;;;4.20;2.37;;;;;;;19.50;41.72;99054.38;4485824;31;20088;-71
2022/05/01 10:02:02;;;;;;;4.93;2.60;;;;;;;19.62;41.56;99052.03;4485467;31;20176;-71
2022/05/01 10:04:32;;;;;;;5.75;2.50;;;;;;;19.78;40.54;99041.19;4485606;31;20144;-71
2022/05/01 10:07:00;;;;;;;5.57;2.60;;;;;;;20.08;40.33;99037.56;4485582;31;20079;-71
2022/05/01 10:09:28;;;;;;;4.95;2.80;;;;;;;20.08;38.58;99032.25;4485716;31;20123;-71
2022/05/01 10:11:58;;;;;;;5.12;2.17;;;;;;;20.28;42.29;99035.06;4485209;31;20162;-71
2022/05/01 10:14:26;;;;;;;4.47;2.42;;;;;;;20.76;42.08;99037.88;4484825;31;20525;-71
2022/05/01 10:16:55;;;;;;;4.45;2.28;;;;;;;20.82;40.46;99033.59;4485647;31;20528;-71
2022/05/01 10:19:23;;;;;;;9.45;3.00;;;;;;;20.78;38.16;99030.50;4485954;31;20155;-71
2022/05/01 10:21:56;;;;;;;3.87;2.62;;;;;;;20.98;37.04;99033.25;4485420;31;20158;-71
2022/05/01 10:24:24;;;;;;;10.15;3.00;;;;;;;20.71;37.32;99029.62;4485653;31;20147;-71
2022/05/01 10:27:01;;;;;;;5.05;2.70;;;;;;;20.18;36.50;99030.06;4485476;31;20127;-71
2022/05/01 10:32:47;;;;;;;4.90;2.40;;;;;;;20.26;38.56;99024.63;4469518;32;20119;-71
2022/05/01 10:35:49;;;;;;;4.90;2.10;;;;;;;20.28;37.09;99019.91;4469849;32;20103;-71
2022/05/01 10:38:27;;;;;;;26.33;2.97;;;;;;;20.70;41.70;99018.16;4469902;32;20072;-71
2022/05/01 10:40:56;;;;;;;4.47;2.65;;;;;;;20.83;38.84;99008.59;4481562;32;20421;-71
2022/05/01 10:43:36;;;;;;;3.17;2.10;;;;;;;20.56;41.84;99008.44;4469401;32;20111;-71
2022/05/01 10:46:18;;;;;;;3.80;2.37;;;;;;;20.75;39.99;99006.91;4470074;32;20131;-71
2022/05/01 10:48:46;;;;;;;3.25;2.83;;;;;;;20.49;38.60;99007.56;4469910;32;20089;-71
2022/05/01 10:51:36;;;;;;;3.40;2.50;;;;;;;20.48;38.19;99012.06;4469753;32;20174;-71
2022/05/01 10:54:09;;;;;;;5.68;3.05;;;;;;;20.72;38.73;99009.97;4469997;32;20081;-71
2022/05/01 10:56:49;;;;;;;3.33;2.40;;;;;;;20.67;39.39;99015.91;4469655;32;20157;-71
2022/05/01 10:59:39;;;;;;;4.43;2.70;;;;;;;20.76;40.60;99005.06;4469539;32;20114;-71
2022/05/01 11:02:42;;;;;;;6.40;2.83;;;;;;;20.42;39.83;99017.34;4469658;32;20152;-71
2022/05/01 11:05:10;;;;;;;6.47;2.80;;;;;;;20.23;41.49;99009.03;4469783;32;20095;-71
2022/05/01 11:07:39;;;;;;;3.65;2.70;;;;;;;20.06;41.61;99015.66;4469472;32;20559;-71
2022/05/01 11:10:09;;;;;;;18.87;3.30;;;;;;;19.94;41.04;99005.56;4469438;32;20116;-71
2022/05/01 11:12:37;;;;;;;3.00;2.37;;;;;;;20.12;41.43;99006.91;4468811;32;20089;-71
2022/05/01 11:15:06;;;;;;;5.18;3.22;;;;;;;20.51;43.21;98998.34;4469377;32;20570;-71
2022/05/01 11:17:36;;;;;;;8.50;3.47;;;;;;;20.37;38.88;98989.47;4468993;32;20157;-71
2022/05/01 11:20:05;;;;;;;4.28;2.50;;;;;;;20.76;42.88;98989.09;4469544;32;20097;-71
2022/05/01 11:22:32;;;;;;;3.25;2.70;;;;;;;21.22;40.91;98988.47;4469283;32;20088;-71
2022/05/01 11:24:59;;;;;;;3.50;2.75;;;;;;;21.40;37.14;98986.03;4468204;32;20161;-71
2022/05/01 11:27:27;;;;;;;4.15;2.60;;;;;;;21.79;41.02;98973.00;4469627;32;20100;-71
2022/05/01 11:30:06;;;;;;;4.22;2.70;;;;;;;22.02;35.69;98972.56;4469862;32;20101;-71
2022/05/01 11:32:47;;;;;;;4.80;2.60;;;;;;;21.51;35.50;98983.84;4485612;31;20089;-71
2022/05/01 11:35:14;;;;;;;6.93;2.83;;;;;;;21.46;35.96;98979.09;4485029;31;20163;-71
2022/05/01 11:38:06;;;;;;;5.20;2.72;;;;;;;21.15;35.05;98974.28;4485311;31;20221;-71
2022/05/01 11:40:34;;;;;;;3.62;2.67;;;;;;;21.21;35.11;98977.00;4485416;31;20386;-71
2022/05/01 11:43:13;;;;;;;3.70;2.97;;;;;;;21.39;33.98;98970.25;4484748;31;20096;-71
2022/05/01 11:45:41;;;;;;;6.47;2.92;;;;;;;21.23;32.79;98964.28;4485123;31;20422;-71
2022/05/01 11:48:27;;;;;;;4.28;2.70;;;;;;;21.34;34.43;98964.72;4484993;32;20100;-71
2022/05/01 11:50:58;;;;;;;6.18;2.65;;;;;;;21.32;33.79;98964.06;4485071;31;20092;-71
2022/05/01 11:53:27;;;;;;;5.05;2.70;;;;;;;21.31;34.73;98962.47;4484855;32;20595;-71
2022/05/01 12:04:29;;;;;;;5.75;2.87;;;;;;;21.53;35.10;98955.13;4484515;31;20092;-71
2022/05/01 12:07:03;;;;;;;6.85;3.00;;;;;;;22.42;37.44;98945.88;4483767;32;20551;-71
2022/05/01 12:09:33;;;;;;;9.80;2.85;;;;;;;22.57;32.43;98947.44;4484582;31;20107;-71
2022/05/01 12:12:00;;;;;;;3.65;2.80;;;;;;;22.20;33.77;98949.78;4484298;32;20139;-71
2022/05/01 12:14:28;;;;;;;3.90;2.65;;;;;;;21.85;34.31;98955.34;4484418;31;20076;-71
2022/05/01 12:16:56;;;;;;;5.97;3.25;;;;;;;22.15;34.26;98951.22;4484866;31;20480;-71
2022/05/01 12:19:37;;;;;;;7.55;3.22;;;;;;;22.45;34.87;98940.09;4484493;31;20153;-71